sensor_id;sensor_type;location;lat;lon;timestamp;P1;durP1;ratioP1;P2;durP2;ratioP2
6727;SDS011;3401;52.504;13.430;2022-07-22T00:01:04;7.30;;;5.93;;
6727;SDS011;3401;52.504;13.430;2022-07-22T00:03:32;6.50;;;5.03;;
6727;SDS011;3401;52.504;13.430;2022-07-22T00:06:00;10.90;;;6.80;;
6727;SDS011;3401;52.504;13.430;2022-07-22T00:08:31;7.67;;;5.70;;
6727;SDS011;3401;52.504;13.430;2022-07-22T00:10:59;10.60;;;6.47;;
6727;SDS011;3401;52.504;13.430;2022-07-22T00:13:33;7.17;;;6.07;;
6727;SDS011;3401;52.504;13.430;2022-07-22T00:16:06;10.33;;;6.20;;
6727;SDS011;3401;52.504;13.430;2022-07-22T00:18:34;6.90;;;5.13;;
6727;SDS011;3401;52.504;13.430;2022-07-22T00:21:06;9.97;;;6.00;;
6727;SDS011;3401;52.504;13.430;2022-07-22T00:23:37;6.83;;;5.80;;
6727;SDS011;3401;52.504;13.430;2022-07-22T00:26:05;8.97;;;5.77;;
6727;SDS011;3401;52.504;13.430;2022-07-22T00:28:38;10.43;;;6.40;;
6727;SDS011;3401;52.504;13.430;2022-07-22T00:31:06;8.70;;;6.27;;
6727;SDS011;3401;52.504;13.430;2022-07-22T00:33:34;9.80;;;6.53;;
6727;SDS011;3401;52.504;13.430;2022-07-22T00:36:06;8.97;;;6.17;;
6727;SDS011;3401;52.504;13.430;2022-07-22T00:38:35;8.03;;;6.07;;
6727;SDS011;3401;52.504;13.430;2022-07-22T00:41:06;10.10;;;6.27;;
6727;SDS011;3401;52.504;13.430;2022-07-22T00:44:00;7.87;;;6.00;;
6727;SDS011;3401;52.504;13.430;2022-07-22T00:46:31;10.17;;;6.20;;
6727;SDS011;3401;52.504;13.430;2022-07-22T00:49:01;10.30;;;6.47;;
6727;SDS011;3401;52.504;13.430;2022-07-22T00:51:30;9.80;;;5.40;;
6727;SDS011;3401;52.504;13.430;2022-07-22T00:54:00;9.10;;;6.23;;
6727;SDS011;3401;52.504;13.430;2022-07-22T00:56:29;10.00;;;6.57;;
6727;SDS011;3401;52.504;13.430;2022-07-22T00:59:00;8.97;;;6.30;;
6727;SDS011;3401;52.504;13.430;2022-07-22T01:01:30;7.83;;;6.10;;
6727;SDS011;3401;52.504;13.430;2022-07-22T01:03:59;7.13;;;5.90;;
6727;SDS011;3401;52.504;13.430;2022-07-22T01:06:28;8.37;;;5.33;;
6727;SDS011;3401;52.504;13.430;2022-07-22T01:08:57;5.63;;;5.00;;
6727;SDS011;3401;52.504;13.430;2022-07-22T01:11:26;7.70;;;4.23;;
6727;SDS011;3401;52.504;13.430;2022-07-22T01:13:55;5.77;;;4.80;;
6727;SDS011;3401;52.504;13.430;2022-07-22T01:16:25;7.07;;;5.63;;
6727;SDS011;3401;52.504;13.430;2022-07-22T01:18:54;6.80;;;4.63;;
6727;SDS011;3401;52.504;13.430;2022-07-22T01:21:25;8.00;;;5.70;;
6727;SDS011;3401;52.504;13.430;2022-07-22T01:23:54;7.13;;;4.77;;
6727;SDS011;3401;52.504;13.430;2022-07-22T01:26:24;9.93;;;4.47;;
6727;SDS011;3401;52.504;13.430;2022-07-22T01:28:52;5.13;;;4.20;;
6727;SDS011;3401;52.504;13.430;2022-07-22T01:31:21;6.30;;;4.90;;
6727;SDS011;3401;52.504;13.430;2022-07-22T01:33:50;10.53;;;3.83;;
6727;SDS011;3401;52.504;13.430;2022-07-22T01:36:19;10.73;;;5.23;;
6727;SDS011;3401;52.504;13.430;2022-07-22T01:38:49;5.47;;;4.23;;
6727;SDS011;3401;52.504;13.430;2022-07-22T01:41:18;6.40;;;4.37;;
6727;SDS011;3401;52.504;13.430;2022-07-22T01:43:47;6.83;;;5.17;;
6727;SDS011;3401;52.504;13.430;2022-07-22T01:46:16;5.63;;;4.47;;
6727;SDS011;3401;52.504;13.430;2022-07-22T01:48:45;11.10;;;4.60;;
6727;SDS011;3401;52.504;13.430;2022-07-22T01:51:13;6.27;;;5.10;;
6727;SDS011;3401;52.504;13.430;2022-07-22T01:53:41;5.80;;;3.50;;
6727;SDS011;3401;52.504;13.430;2022-07-22T01:56:15;5.67;;;3.93;;
6727;SDS011;3401;52.504;13.430;2022-07-22T01:58:47;6.77;;;4.53;;
6727;SDS011;3401;52.504;13.430;2022-07-22T02:01:21;6.37;;;4.83;;
6727;SDS011;3401;52.504;13.430;2022-07-22T02:03:52;4.90;;;3.40;;
6727;SDS011;3401;52.504;13.430;2022-07-22T02:06:23;4.60;;;3.90;;
6727;SDS011;3401;52.504;13.430;2022-07-22T02:08:55;5.57;;;3.47;;
6727;SDS011;3401;52.504;13.430;2022-07-22T02:11:43;5.80;;;4.00;;
6727;SDS011;3401;52.504;13.430;2022-07-22T02:14:14;8.00;;;5.07;;
6727;SDS011;3401;52.504;13.430;2022-07-22T02:16:42;11.50;;;4.37;;
6727;SDS011;3401;52.504;13.430;2022-07-22T02:19:11;7.00;;;4.07;;
6727;SDS011;3401;52.504;13.430;2022-07-22T02:21:41;4.73;;;3.70;;
6727;SDS011;3401;52.504;13.430;2022-07-22T02:24:09;7.93;;;4.80;;
6727;SDS011;3401;52.504;13.430;2022-07-22T02:26:37;6.80;;;4.43;;
6727;SDS011;3401;52.504;13.430;2022-07-22T02:29:06;4.20;;;3.80;;
6727;SDS011;3401;52.504;13.430;2022-07-22T02:31:35;6.03;;;4.10;;
6727;SDS011;3401;52.504;13.430;2022-07-22T02:34:06;6.43;;;4.57;;
6727;SDS011;3401;52.504;13.430;2022-07-22T02:36:36;7.30;;;4.67;;
6727;SDS011;3401;52.504;13.430;2022-07-22T02:39:04;4.80;;;3.90;;
6727;SDS011;3401;52.504;13.430;2022-07-22T02:41:33;6.03;;;4.50;;
6727;SDS011;3401;52.504;13.430;2022-07-22T02:44:01;6.87;;;5.20;;
6727;SDS011;3401;52.504;13.430;2022-07-22T02:46:31;6.13;;;4.70;;
6727;SDS011;3401;52.504;13.430;2022-07-22T02:49:09;13.87;;;7.63;;
6727;SDS011;3401;52.504;13.430;2022-07-22T02:51:37;7.60;;;5.53;;
6727;SDS011;3401;52.504;13.430;2022-07-22T02:54:07;9.70;;;5.00;;
6727;SDS011;3401;52.504;13.430;2022-07-22T02:56:35;7.90;;;5.00;;
6727;SDS011;3401;52.504;13.430;2022-07-22T02:59:05;9.30;;;5.00;;
6727;SDS011;3401;52.504;13.430;2022-07-22T03:01:37;8.80;;;5.07;;
6727;SDS011;3401;52.504;13.430;2022-07-22T03:04:05;6.90;;;5.20;;
6727;SDS011;3401;52.504;13.430;2022-07-22T03:06:36;11.83;;;6.70;;
6727;SDS011;3401;52.504;13.430;2022-07-22T03:09:11;10.13;;;5.87;;
6727;SDS011;3401;52.504;13.430;2022-07-22T03:11:45;13.13;;;5.63;;
6727;SDS011;3401;52.504;13.430;2022-07-22T03:14:14;6.50;;;5.43;;
6727;SDS011;3401;52.504;13.430;2022-07-22T03:16:46;8.83;;;5.70;;
6727;SDS011;3401;52.504;13.430;2022-07-22T03:19:15;11.70;;;5.67;;
6727;SDS011;3401;52.504;13.430;2022-07-22T03:21:47;9.17;;;5.73;;
6727;SDS011;3401;52.504;13.430;2022-07-22T03:24:15;9.17;;;6.17;;
6727;SDS011;3401;52.504;13.430;2022-07-22T03:26:44;9.77;;;5.90;;
6727;SDS011;3401;52.504;13.430;2022-07-22T03:29:13;9.70;;;6.17;;
6727;SDS011;3401;52.504;13.430;2022-07-22T03:31:41;10.63;;;6.10;;
6727;SDS011;3401;52.504;13.430;2022-07-22T03:34:12;10.77;;;6.53;;
6727;SDS011;3401;52.504;13.430;2022-07-22T03:36:49;9.83;;;6.83;;
6727;SDS011;3401;52.504;13.430;2022-07-22T03:39:17;11.17;;;6.53;;
6727;SDS011;3401;52.504;13.430;2022-07-22T03:41:48;9.87;;;6.70;;
6727;SDS011;3401;52.504;13.430;2022-07-22T03:44:16;10.00;;;6.97;;
6727;SDS011;3401;52.504;13.430;2022-07-22T03:46:44;8.77;;;6.30;;
6727;SDS011;3401;52.504;13.430;2022-07-22T03:49:15;8.70;;;5.80;;
6727;SDS011;3401;52.504;13.430;2022-07-22T03:51:43;16.50;;;6.70;;
6727;SDS011;3401;52.504;13.430;2022-07-22T03:54:11;11.80;;;6.53;;
6727;SDS011;3401;52.504;13.430;2022-07-22T03:56:42;13.17;;;7.30;;
6727;SDS011;3401;52.504;13.430;2022-07-22T03:59:10;11.90;;;6.20;;
6727;SDS011;3401;52.504;13.430;2022-07-22T04:01:39;11.60;;;7.20;;
6727;SDS011;3401;52.504;13.430;2022-07-22T04:04:09;11.37;;;7.30;;
6727;SDS011;3401;52.504;13.430;2022-07-22T04:06:42;14.23;;;7.80;;
6727;SDS011;3401;52.504;13.430;2022-07-22T04:09:18;13.13;;;7.30;;
6727;SDS011;3401;52.504;13.430;2022-07-22T04:11:47;9.70;;;6.67;;
6727;SDS011;3401;52.504;13.430;2022-07-22T04:14:18;10.27;;;7.37;;
6727;SDS011;3401;52.504;13.430;2022-07-22T04:16:46;8.97;;;6.70;;
6727;SDS011;3401;52.504;13.430;2022-07-22T04:19:14;11.13;;;7.60;;
6727;SDS011;3401;52.504;13.430;2022-07-22T04:21:56;11.47;;;7.00;;
6727;SDS011;3401;52.504;13.430;2022-07-22T04:24:27;11.00;;;7.03;;
6727;SDS011;3401;52.504;13.430;2022-07-22T04:26:56;15.47;;;9.13;;
6727;SDS011;3401;52.504;13.430;2022-07-22T04:29:24;11.30;;;6.30;;
6727;SDS011;3401;52.504;13.430;2022-07-22T04:31:52;11.30;;;6.20;;
6727;SDS011;3401;52.504;13.430;2022-07-22T04:34:28;12.47;;;6.63;;
6727;SDS011;3401;52.504;13.430;2022-07-22T04:36:59;14.00;;;7.70;;
6727;SDS011;3401;52.504;13.430;2022-07-22T04:39:33;11.07;;;6.80;;
6727;SDS011;3401;52.504;13.430;2022-07-22T04:42:02;10.60;;;6.57;;
6727;SDS011;3401;52.504;13.430;2022-07-22T04:44:32;12.27;;;7.07;;
6727;SDS011;3401;52.504;13.430;2022-07-22T04:47:01;9.60;;;6.87;;
6727;SDS011;3401;52.504;13.430;2022-07-22T04:49:36;11.20;;;7.30;;
6727;SDS011;3401;52.504;13.430;2022-07-22T04:52:09;12.07;;;7.10;;
6727;SDS011;3401;52.504;13.430;2022-07-22T04:54:44;11.30;;;7.60;;
6727;SDS011;3401;52.504;13.430;2022-07-22T04:57:13;14.40;;;6.77;;
6727;SDS011;3401;52.504;13.430;2022-07-22T04:59:43;12.10;;;7.13;;
6727;SDS011;3401;52.504;13.430;2022-07-22T05:02:11;10.53;;;6.67;;
6727;SDS011;3401;52.504;13.430;2022-07-22T05:04:41;9.87;;;7.07;;
6727;SDS011;3401;52.504;13.430;2022-07-22T05:07:11;11.20;;;7.33;;
6727;SDS011;3401;52.504;13.430;2022-07-22T05:09:39;10.30;;;6.70;;
6727;SDS011;3401;52.504;13.430;2022-07-22T05:12:10;21.73;;;7.80;;
6727;SDS011;3401;52.504;13.430;2022-07-22T05:14:38;11.20;;;7.30;;
6727;SDS011;3401;52.504;13.430;2022-07-22T05:17:08;11.77;;;7.07;;
6727;SDS011;3401;52.504;13.430;2022-07-22T05:19:51;13.63;;;8.03;;
6727;SDS011;3401;52.504;13.430;2022-07-22T05:22:21;10.43;;;7.10;;
6727;SDS011;3401;52.504;13.430;2022-07-22T05:24:50;10.27;;;7.40;;
6727;SDS011;3401;52.504;13.430;2022-07-22T05:27:18;13.60;;;7.60;;
6727;SDS011;3401;52.504;13.430;2022-07-22T05:29:47;12.10;;;7.30;;
6727;SDS011;3401;52.504;13.430;2022-07-22T05:32:15;14.10;;;7.17;;
6727;SDS011;3401;52.504;13.430;2022-07-22T05:34:45;13.30;;;7.80;;
6727;SDS011;3401;52.504;13.430;2022-07-22T05:37:14;13.67;;;8.40;;
6727;SDS011;3401;52.504;13.430;2022-07-22T05:39:46;11.30;;;8.20;;
6727;SDS011;3401;52.504;13.430;2022-07-22T05:42:18;12.80;;;7.87;;
6727;SDS011;3401;52.504;13.430;2022-07-22T05:44:49;10.20;;;7.60;;
6727;SDS011;3401;52.504;13.430;2022-07-22T05:47:17;12.13;;;8.30;;
6727;SDS011;3401;52.504;13.430;2022-07-22T05:49:45;9.73;;;7.33;;
6727;SDS011;3401;52.504;13.430;2022-07-22T05:52:14;14.00;;;7.77;;
6727;SDS011;3401;52.504;13.430;2022-07-22T05:54:42;11.53;;;7.73;;
6727;SDS011;3401;52.504;13.430;2022-07-22T05:57:12;20.00;;;9.00;;
6727;SDS011;3401;52.504;13.430;2022-07-22T05:59:42;10.57;;;7.67;;
6727;SDS011;3401;52.504;13.430;2022-07-22T06:02:10;9.90;;;6.97;;
6727;SDS011;3401;52.504;13.430;2022-07-22T06:04:42;12.60;;;8.00;;
6727;SDS011;3401;52.504;13.430;2022-07-22T06:07:12;15.87;;;7.93;;
6727;SDS011;3401;52.504;13.430;2022-07-22T06:09:42;12.13;;;7.60;;
6727;SDS011;3401;52.504;13.430;2022-07-22T06:12:13;10.07;;;6.87;;
6727;SDS011;3401;52.504;13.430;2022-07-22T06:14:42;13.10;;;8.07;;
6727;SDS011;3401;52.504;13.430;2022-07-22T06:17:10;13.53;;;8.60;;
6727;SDS011;3401;52.504;13.430;2022-07-22T06:19:38;12.70;;;7.03;;
6727;SDS011;3401;52.504;13.430;2022-07-22T06:22:07;16.37;;;7.37;;
6727;SDS011;3401;52.504;13.430;2022-07-22T06:24:36;13.20;;;6.97;;
6727;SDS011;3401;52.504;13.430;2022-07-22T06:27:05;12.67;;;8.07;;
6727;SDS011;3401;52.504;13.430;2022-07-22T06:29:34;10.53;;;7.50;;
6727;SDS011;3401;52.504;13.430;2022-07-22T06:32:05;13.00;;;6.97;;
6727;SDS011;3401;52.504;13.430;2022-07-22T06:34:36;11.07;;;7.53;;
6727;SDS011;3401;52.504;13.430;2022-07-22T06:37:04;14.60;;;8.53;;
6727;SDS011;3401;52.504;13.430;2022-07-22T06:39:33;10.20;;;7.03;;
6727;SDS011;3401;52.504;13.430;2022-07-22T06:42:25;11.67;;;5.73;;
6727;SDS011;3401;52.504;13.430;2022-07-22T06:45:14;9.87;;;6.87;;
6727;SDS011;3401;52.504;13.430;2022-07-22T06:48:02;10.10;;;7.37;;
6727;SDS011;3401;52.504;13.430;2022-07-22T06:50:31;8.83;;;6.07;;
6727;SDS011;3401;52.504;13.430;2022-07-22T06:53:04;10.00;;;6.70;;
6727;SDS011;3401;52.504;13.430;2022-07-22T06:55:32;24.80;;;6.97;;
6727;SDS011;3401;52.504;13.430;2022-07-22T06:58:06;9.73;;;6.83;;
6727;SDS011;3401;52.504;13.430;2022-07-22T07:00:35;12.13;;;6.93;;
6727;SDS011;3401;52.504;13.430;2022-07-22T07:03:30;8.57;;;5.90;;
6727;SDS011;3401;52.504;13.430;2022-07-22T07:06:07;9.60;;;6.57;;
6727;SDS011;3401;52.504;13.430;2022-07-22T07:09:01;8.30;;;6.20;;
6727;SDS011;3401;52.504;13.430;2022-07-22T07:11:32;13.43;;;5.60;;
6727;SDS011;3401;52.504;13.430;2022-07-22T07:14:06;5.97;;;5.13;;
6727;SDS011;3401;52.504;13.430;2022-07-22T07:16:35;8.90;;;6.10;;
6727;SDS011;3401;52.504;13.430;2022-07-22T07:19:04;11.20;;;5.63;;
6727;SDS011;3401;52.504;13.430;2022-07-22T07:21:32;7.77;;;5.80;;
6727;SDS011;3401;52.504;13.430;2022-07-22T07:24:01;9.57;;;6.47;;
6727;SDS011;3401;52.504;13.430;2022-07-22T07:26:31;6.70;;;5.40;;
6727;SDS011;3401;52.504;13.430;2022-07-22T07:28:59;8.60;;;5.70;;
6727;SDS011;3401;52.504;13.430;2022-07-22T07:31:32;6.97;;;5.03;;
6727;SDS011;3401;52.504;13.430;2022-07-22T07:34:10;6.50;;;5.50;;
6727;SDS011;3401;52.504;13.430;2022-07-22T07:36:46;8.07;;;6.17;;
6727;SDS011;3401;52.504;13.430;2022-07-22T07:39:15;7.43;;;5.33;;
6727;SDS011;3401;52.504;13.430;2022-07-22T07:41:43;8.27;;;5.50;;
6727;SDS011;3401;52.504;13.430;2022-07-22T07:44:16;7.90;;;5.70;;
6727;SDS011;3401;52.504;13.430;2022-07-22T07:46:46;7.40;;;5.10;;
6727;SDS011;3401;52.504;13.430;2022-07-22T07:49:15;8.27;;;5.27;;
6727;SDS011;3401;52.504;13.430;2022-07-22T07:51:43;12.90;;;5.50;;
6727;SDS011;3401;52.504;13.430;2022-07-22T07:54:11;8.03;;;5.30;;
6727;SDS011;3401;52.504;13.430;2022-07-22T07:56:42;5.73;;;4.43;;
6727;SDS011;3401;52.504;13.430;2022-07-22T07:59:11;7.63;;;5.40;;
6727;SDS011;3401;52.504;13.430;2022-07-22T08:01:55;7.00;;;5.10;;
6727;SDS011;3401;52.504;13.430;2022-07-22T08:04:27;7.53;;;4.70;;
6727;SDS011;3401;52.504;13.430;2022-07-22T08:07:14;7.93;;;4.70;;
6727;SDS011;3401;52.504;13.430;2022-07-22T08:09:44;9.63;;;5.13;;
6727;SDS011;3401;52.504;13.430;2022-07-22T08:12:25;6.37;;;4.77;;
6727;SDS011;3401;52.504;13.430;2022-07-22T08:15:08;5.80;;;4.63;;
6727;SDS011;3401;52.504;13.430;2022-07-22T08:17:51;7.50;;;4.80;;
6727;SDS011;3401;52.504;13.430;2022-07-22T08:20:21;5.37;;;4.50;;
6727;SDS011;3401;52.504;13.430;2022-07-22T08:22:49;5.80;;;4.53;;
6727;SDS011;3401;52.504;13.430;2022-07-22T08:25:18;6.47;;;5.60;;
6727;SDS011;3401;52.504;13.430;2022-07-22T08:27:46;7.10;;;4.50;;
6727;SDS011;3401;52.504;13.430;2022-07-22T08:30:15;5.47;;;4.87;;
6727;SDS011;3401;52.504;13.430;2022-07-22T08:32:43;4.70;;;3.93;;
6727;SDS011;3401;52.504;13.430;2022-07-22T08:35:13;8.43;;;4.40;;
6727;SDS011;3401;52.504;13.430;2022-07-22T08:37:41;3.87;;;3.20;;
6727;SDS011;3401;52.504;13.430;2022-07-22T08:40:12;5.13;;;4.60;;
6727;SDS011;3401;52.504;13.430;2022-07-22T08:42:41;4.70;;;4.03;;
6727;SDS011;3401;52.504;13.430;2022-07-22T08:45:11;3.90;;;3.50;;
6727;SDS011;3401;52.504;13.430;2022-07-22T08:47:46;5.43;;;3.73;;
6727;SDS011;3401;52.504;13.430;2022-07-22T08:50:45;5.90;;;3.90;;
6727;SDS011;3401;52.504;13.430;2022-07-22T08:53:29;4.37;;;3.97;;
6727;SDS011;3401;52.504;13.430;2022-07-22T08:56:06;5.77;;;4.10;;
6727;SDS011;3401;52.504;13.430;2022-07-22T08:58:35;7.80;;;4.37;;
6727;SDS011;3401;52.504;13.430;2022-07-22T09:01:05;4.20;;;3.40;;
6727;SDS011;3401;52.504;13.430;2022-07-22T09:03:44;3.50;;;3.20;;
6727;SDS011;3401;52.504;13.430;2022-07-22T09:06:19;4.57;;;4.03;;
6727;SDS011;3401;52.504;13.430;2022-07-22T09:08:53;3.53;;;3.10;;
6727;SDS011;3401;52.504;13.430;2022-07-22T09:11:45;4.10;;;3.70;;
6727;SDS011;3401;52.504;13.430;2022-07-22T09:14:43;3.80;;;3.40;;
6727;SDS011;3401;52.504;13.430;2022-07-22T09:17:32;4.47;;;4.07;;
6727;SDS011;3401;52.504;13.430;2022-07-22T09:20:25;3.80;;;3.47;;
6727;SDS011;3401;52.504;13.430;2022-07-22T09:23:15;5.07;;;4.23;;
6727;SDS011;3401;52.504;13.430;2022-07-22T09:25:46;5.50;;;3.60;;
6727;SDS011;3401;52.504;13.430;2022-07-22T09:28:25;4.57;;;4.17;;
6727;SDS011;3401;52.504;13.430;2022-07-22T09:31:22;4.07;;;3.67;;
6727;SDS011;3401;52.504;13.430;2022-07-22T09:34:01;4.00;;;3.70;;
6727;SDS011;3401;52.504;13.430;2022-07-22T09:36:31;6.60;;;4.00;;
6727;SDS011;3401;52.504;13.430;2022-07-22T09:39:00;4.00;;;3.70;;
6727;SDS011;3401;52.504;13.430;2022-07-22T09:41:29;4.00;;;3.43;;
6727;SDS011;3401;52.504;13.430;2022-07-22T09:43:57;5.23;;;3.80;;
6727;SDS011;3401;52.504;13.430;2022-07-22T09:46:36;10.73;;;3.07;;
6727;SDS011;3401;52.504;13.430;2022-07-22T09:49:39;4.37;;;3.97;;
6727;SDS011;3401;52.504;13.430;2022-07-22T09:52:26;3.57;;;2.70;;
6727;SDS011;3401;52.504;13.430;2022-07-22T09:55:05;7.30;;;3.90;;
6727;SDS011;3401;52.504;13.430;2022-07-22T09:57:36;3.57;;;3.27;;
6727;SDS011;3401;52.504;13.430;2022-07-22T10:00:05;3.40;;;3.10;;
6727;SDS011;3401;52.504;13.430;2022-07-22T10:02:48;5.17;;;3.47;;
6727;SDS011;3401;52.504;13.430;2022-07-22T10:05:19;3.67;;;3.37;;
6727;SDS011;3401;52.504;13.430;2022-07-22T10:07:48;3.80;;;2.80;;
6727;SDS011;3401;52.504;13.430;2022-07-22T10:10:19;3.37;;;3.10;;
6727;SDS011;3401;52.504;13.430;2022-07-22T10:12:51;9.03;;;2.60;;
6727;SDS011;3401;52.504;13.430;2022-07-22T10:15:22;5.23;;;2.60;;
6727;SDS011;3401;52.504;13.430;2022-07-22T10:18:01;3.60;;;3.30;;
6727;SDS011;3401;52.504;13.430;2022-07-22T10:20:35;2.70;;;2.50;;
6727;SDS011;3401;52.504;13.430;2022-07-22T10:23:04;2.40;;;2.20;;
6727;SDS011;3401;52.504;13.430;2022-07-22T10:25:51;2.17;;;1.93;;
6727;SDS011;3401;52.504;13.430;2022-07-22T10:28:22;2.83;;;2.50;;
6727;SDS011;3401;52.504;13.430;2022-07-22T10:30:52;2.63;;;2.43;;
6727;SDS011;3401;52.504;13.430;2022-07-22T10:33:21;3.17;;;2.83;;
6727;SDS011;3401;52.504;13.430;2022-07-22T10:36:00;2.87;;;2.67;;
6727;SDS011;3401;52.504;13.430;2022-07-22T10:38:33;2.43;;;2.27;;
6727;SDS011;3401;52.504;13.430;2022-07-22T10:41:06;4.03;;;1.70;;
6727;SDS011;3401;52.504;13.430;2022-07-22T10:43:45;2.53;;;2.10;;
6727;SDS011;3401;52.504;13.430;2022-07-22T10:46:14;4.00;;;2.27;;
6727;SDS011;3401;52.504;13.430;2022-07-22T10:48:45;2.90;;;2.50;;
6727;SDS011;3401;52.504;13.430;2022-07-22T10:51:15;2.27;;;2.10;;
6727;SDS011;3401;52.504;13.430;2022-07-22T10:53:46;3.33;;;2.20;;
6727;SDS011;3401;52.504;13.430;2022-07-22T10:56:20;3.17;;;2.37;;
6727;SDS011;3401;52.504;13.430;2022-07-22T10:58:51;2.77;;;2.60;;
6727;SDS011;3401;52.504;13.430;2022-07-22T11:01:21;2.40;;;2.20;;
6727;SDS011;3401;52.504;13.430;2022-07-22T11:03:52;2.50;;;2.30;;
6727;SDS011;3401;52.504;13.430;2022-07-22T11:06:23;3.03;;;2.70;;
6727;SDS011;3401;52.504;13.430;2022-07-22T11:08:56;7.00;;;2.77;;
6727;SDS011;3401;52.504;13.430;2022-07-22T11:11:36;2.93;;;2.60;;
6727;SDS011;3401;52.504;13.430;2022-07-22T11:14:11;2.20;;;2.10;;
6727;SDS011;3401;52.504;13.430;2022-07-22T11:16:43;2.80;;;2.60;;
6727;SDS011;3401;52.504;13.430;2022-07-22T11:19:13;2.83;;;2.63;;
6727;SDS011;3401;52.504;13.430;2022-07-22T11:21:42;2.87;;;2.67;;
6727;SDS011;3401;52.504;13.430;2022-07-22T11:24:11;3.37;;;2.70;;
6727;SDS011;3401;52.504;13.430;2022-07-22T11:26:41;3.50;;;3.10;;
6727;SDS011;3401;52.504;13.430;2022-07-22T11:29:15;2.73;;;2.53;;
6727;SDS011;3401;52.504;13.430;2022-07-22T11:31:45;3.50;;;3.20;;
6727;SDS011;3401;52.504;13.430;2022-07-22T11:34:14;6.20;;;3.17;;
6727;SDS011;3401;52.504;13.430;2022-07-22T11:36:44;3.93;;;2.30;;
6727;SDS011;3401;52.504;13.430;2022-07-22T11:39:13;3.10;;;2.70;;
6727;SDS011;3401;52.504;13.430;2022-07-22T11:41:43;2.33;;;2.23;;
6727;SDS011;3401;52.504;13.430;2022-07-22T11:44:17;3.40;;;2.90;;
6727;SDS011;3401;52.504;13.430;2022-07-22T11:46:46;3.13;;;2.90;;
6727;SDS011;3401;52.504;13.430;2022-07-22T11:49:15;6.10;;;3.10;;
6727;SDS011;3401;52.504;13.430;2022-07-22T11:51:44;3.73;;;3.43;;
6727;SDS011;3401;52.504;13.430;2022-07-22T11:54:12;3.10;;;2.90;;
6727;SDS011;3401;52.504;13.430;2022-07-22T11:56:41;2.60;;;2.40;;
6727;SDS011;3401;52.504;13.430;2022-07-22T11:59:12;2.37;;;2.20;;
6727;SDS011;3401;52.504;13.430;2022-07-22T12:01:42;3.67;;;2.77;;
6727;SDS011;3401;52.504;13.430;2022-07-22T12:04:11;3.33;;;3.03;;
6727;SDS011;3401;52.504;13.430;2022-07-22T12:06:41;2.37;;;2.27;;
6727;SDS011;3401;52.504;13.430;2022-07-22T12:09:11;3.80;;;2.27;;
6727;SDS011;3401;52.504;13.430;2022-07-22T12:11:44;3.17;;;2.87;;
6727;SDS011;3401;52.504;13.430;2022-07-22T12:14:17;2.97;;;2.67;;
6727;SDS011;3401;52.504;13.430;2022-07-22T12:16:52;2.50;;;2.30;;
6727;SDS011;3401;52.504;13.430;2022-07-22T12:19:25;5.07;;;2.90;;
6727;SDS011;3401;52.504;13.430;2022-07-22T12:21:57;2.23;;;2.03;;
6727;SDS011;3401;52.504;13.430;2022-07-22T12:24:27;2.50;;;2.30;;
6727;SDS011;3401;52.504;13.430;2022-07-22T12:26:59;2.47;;;2.13;;
6727;SDS011;3401;52.504;13.430;2022-07-22T12:29:30;2.37;;;2.17;;
6727;SDS011;3401;52.504;13.430;2022-07-22T12:31:59;1.83;;;1.73;;
6727;SDS011;3401;52.504;13.430;2022-07-22T12:34:36;2.87;;;1.97;;
6727;SDS011;3401;52.504;13.430;2022-07-22T12:37:12;2.30;;;2.10;;
6727;SDS011;3401;52.504;13.430;2022-07-22T12:39:58;1.90;;;1.80;;
6727;SDS011;3401;52.504;13.430;2022-07-22T12:42:27;1.43;;;1.33;;
6727;SDS011;3401;52.504;13.430;2022-07-22T12:45:02;1.50;;;1.40;;
6727;SDS011;3401;52.504;13.430;2022-07-22T12:47:42;1.57;;;1.47;;
6727;SDS011;3401;52.504;13.430;2022-07-22T12:50:18;2.00;;;1.90;;
6727;SDS011;3401;52.504;13.430;2022-07-22T12:52:48;1.60;;;1.50;;
6727;SDS011;3401;52.504;13.430;2022-07-22T12:55:37;2.10;;;1.67;;
6727;SDS011;3401;52.504;13.430;2022-07-22T12:58:06;1.83;;;1.73;;
6727;SDS011;3401;52.504;13.430;2022-07-22T13:00:37;1.97;;;1.80;;
6727;SDS011;3401;52.504;13.430;2022-07-22T13:03:06;1.87;;;1.77;;
6727;SDS011;3401;52.504;13.430;2022-07-22T13:05:34;1.33;;;1.27;;
6727;SDS011;3401;52.504;13.430;2022-07-22T13:08:03;1.90;;;1.70;;
6727;SDS011;3401;52.504;13.430;2022-07-22T13:10:35;2.30;;;1.90;;
6727;SDS011;3401;52.504;13.430;2022-07-22T13:13:05;1.80;;;1.70;;
6727;SDS011;3401;52.504;13.430;2022-07-22T13:15:34;2.20;;;1.97;;
6727;SDS011;3401;52.504;13.430;2022-07-22T13:18:04;4.47;;;1.80;;
6727;SDS011;3401;52.504;13.430;2022-07-22T13:20:34;1.57;;;1.47;;
6727;SDS011;3401;52.504;13.430;2022-07-22T13:23:02;1.90;;;1.70;;
6727;SDS011;3401;52.504;13.430;2022-07-22T13:25:31;1.60;;;1.50;;
6727;SDS011;3401;52.504;13.430;2022-07-22T13:27:59;2.00;;;1.90;;
6727;SDS011;3401;52.504;13.430;2022-07-22T13:30:27;1.77;;;1.67;;
6727;SDS011;3401;52.504;13.430;2022-07-22T13:32:56;1.40;;;1.27;;
6727;SDS011;3401;52.504;13.430;2022-07-22T13:35:27;1.10;;;1.10;;
6727;SDS011;3401;52.504;13.430;2022-07-22T13:37:56;1.60;;;1.50;;
6727;SDS011;3401;52.504;13.430;2022-07-22T13:40:24;1.20;;;1.20;;
6727;SDS011;3401;52.504;13.430;2022-07-22T13:42:52;1.43;;;1.33;;
6727;SDS011;3401;52.504;13.430;2022-07-22T13:45:20;1.57;;;1.33;;
6727;SDS011;3401;52.504;13.430;2022-07-22T13:47:48;3.90;;;1.20;;
6727;SDS011;3401;52.504;13.430;2022-07-22T13:50:16;1.50;;;1.40;;
6727;SDS011;3401;52.504;13.430;2022-07-22T13:52:45;1.37;;;1.27;;
6727;SDS011;3401;52.504;13.430;2022-07-22T13:55:13;2.30;;;1.53;;
6727;SDS011;3401;52.504;13.430;2022-07-22T13:57:41;1.73;;;1.63;;
6727;SDS011;3401;52.504;13.430;2022-07-22T14:00:10;1.30;;;1.20;;
6727;SDS011;3401;52.504;13.430;2022-07-22T14:02:40;1.60;;;1.50;;
6727;SDS011;3401;52.504;13.430;2022-07-22T14:05:10;3.93;;;1.20;;
6727;SDS011;3401;52.504;13.430;2022-07-22T14:07:39;1.00;;;1.00;;
6727;SDS011;3401;52.504;13.430;2022-07-22T14:10:09;1.40;;;1.33;;
6727;SDS011;3401;52.504;13.430;2022-07-22T14:12:37;1.33;;;1.27;;
6727;SDS011;3401;52.504;13.430;2022-07-22T14:15:05;1.20;;;1.10;;
6727;SDS011;3401;52.504;13.430;2022-07-22T14:17:34;2.20;;;1.10;;
6727;SDS011;3401;52.504;13.430;2022-07-22T14:20:03;1.70;;;1.60;;
6727;SDS011;3401;52.504;13.430;2022-07-22T14:22:34;1.20;;;1.10;;
6727;SDS011;3401;52.504;13.430;2022-07-22T14:25:02;2.73;;;2.53;;
6727;SDS011;3401;52.504;13.430;2022-07-22T14:27:31;1.40;;;1.30;;
6727;SDS011;3401;52.504;13.430;2022-07-22T14:29:59;1.10;;;1.00;;
6727;SDS011;3401;52.504;13.430;2022-07-22T14:32:27;4.80;;;1.23;;
6727;SDS011;3401;52.504;13.430;2022-07-22T14:34:55;4.87;;;1.20;;
6727;SDS011;3401;52.504;13.430;2022-07-22T14:37:23;1.37;;;1.33;;
6727;SDS011;3401;52.504;13.430;2022-07-22T14:39:53;2.40;;;1.67;;
6727;SDS011;3401;52.504;13.430;2022-07-22T14:42:25;0.90;;;0.90;;
6727;SDS011;3401;52.504;13.430;2022-07-22T14:44:54;6.63;;;1.17;;
6727;SDS011;3401;52.504;13.430;2022-07-22T14:47:22;0.90;;;0.90;;
6727;SDS011;3401;52.504;13.430;2022-07-22T14:49:51;1.30;;;1.30;;
6727;SDS011;3401;52.504;13.430;2022-07-22T14:52:19;6.77;;;1.20;;
6727;SDS011;3401;52.504;13.430;2022-07-22T14:54:47;1.63;;;1.53;;
6727;SDS011;3401;52.504;13.430;2022-07-22T14:57:15;1.67;;;1.30;;
6727;SDS011;3401;52.504;13.430;2022-07-22T14:59:43;1.37;;;1.37;;
6727;SDS011;3401;52.504;13.430;2022-07-22T15:02:14;1.40;;;1.30;;
6727;SDS011;3401;52.504;13.430;2022-07-22T15:04:42;3.90;;;1.00;;
6727;SDS011;3401;52.504;13.430;2022-07-22T15:07:10;1.00;;;1.00;;
6727;SDS011;3401;52.504;13.430;2022-07-22T15:09:38;1.17;;;1.17;;
6727;SDS011;3401;52.504;13.430;2022-07-22T15:12:06;0.90;;;0.90;;
6727;SDS011;3401;52.504;13.430;2022-07-22T15:14:54;1.70;;;1.30;;
6727;SDS011;3401;52.504;13.430;2022-07-22T15:17:24;1.03;;;1.00;;
6727;SDS011;3401;52.504;13.430;2022-07-22T15:19:52;1.97;;;1.10;;
6727;SDS011;3401;52.504;13.430;2022-07-22T15:22:20;1.00;;;1.00;;
6727;SDS011;3401;52.504;13.430;2022-07-22T15:24:51;1.03;;;1.03;;